SARC/CNQ METAR and TAF weather

Enter ICAO airport designator
Station Type Date Time Source
SARC METAR 2019/02/20 23:00 UTC NOAA

SARC 202300Z 09003KT 8000 NSC 30/23 Q1007


Station Type Date Time Source
SARC Decoded METAR 2019/02/20 23:00 UTC NOAA

Corrientes Aero., Argentina (SARC) 27-27S 058-46W 62M
Feb 20, 2019 - 06:00 PM EST / 2019.02.20 2300 UTC
Wind: from the E (090 degrees) at 3 MPH (3 KT):0
Visibility: 4 mile(s):0
Temperature: 86 F (30 C)
Heat index: 93.4 F (34.1 C):1
Dew Point: 73 F (23 C)
Relative Humidity: 66%
Pressure (altimeter): 29.74 in. Hg (1007 hPa)
ob: SARC 202300Z 09003KT 8000 NSC 30/23 Q1007
cycle: 23

Station Type Date Time Source
SARC TAF 2017/11/25 07:54 UTC NOAA

TAF TAF
AMD SARC 250650Z 2507/2606 18025G40KT 1500 +TSRA SCT010 BKN030 FEW050CB BKN050 TX25/2518Z TN20/2509Z
BECMG 2510/2512 18015KT 5000 TSRA BKN020 FEW050CB OVC060


Example: see airport list